createdAt,value
2022-08-25T00:01:35.502Z,65.31
2022-08-25T00:04:06.224Z,65.67
2022-08-25T00:06:33.075Z,66.07
2022-08-25T00:09:00.998Z,65.74
2022-08-25T00:11:30.028Z,65.82
2022-08-25T00:14:00.086Z,66.23
2022-08-25T00:16:29.101Z,66.33
2022-08-25T00:18:58.765Z,66.25
2022-08-25T00:21:25.974Z,66.37
2022-08-25T00:23:52.973Z,66.19
2022-08-25T00:26:21.708Z,66.14
2022-08-25T00:28:48.310Z,66.49
2022-08-25T00:31:17.306Z,67.03
2022-08-25T00:33:44.496Z,67.46
2022-08-25T00:36:11.802Z,67.78
2022-08-25T00:38:38.769Z,68.03
2022-08-25T00:41:07.670Z,67.94
2022-08-25T00:43:43.445Z,67.91
2022-08-25T00:46:11.802Z,67.92
2022-08-25T00:48:40.282Z,67.87
2022-08-25T00:51:09.775Z,67.79
2022-08-25T00:53:36.834Z,67.94
2022-08-25T00:56:03.992Z,68.02
2022-08-25T00:58:32.425Z,68.22
2022-08-25T01:01:00.853Z,68.39
2022-08-25T01:03:33.030Z,68.44
2022-08-25T01:06:04.253Z,68.78
2022-08-25T01:08:32.432Z,69.03
2022-08-25T01:11:02.413Z,68.58
2022-08-25T01:13:33.944Z,68.36
2022-08-25T01:16:02.047Z,68.51
2022-08-25T01:18:29.586Z,68.18
2022-08-25T01:20:59.119Z,68.20
2022-08-25T01:23:26.754Z,68.47
2022-08-25T01:26:03.532Z,68.04
2022-08-25T01:28:30.914Z,68.07
2022-08-25T01:30:57.621Z,68.34
2022-08-25T01:33:24.543Z,68.42
2022-08-25T01:35:51.165Z,68.60
2022-08-25T01:38:19.183Z,68.62
2022-08-25T01:40:45.751Z,68.58
2022-08-25T01:43:21.277Z,68.90
2022-08-25T01:45:48.648Z,69.10
2022-08-25T01:48:16.343Z,69.11
2022-08-25T01:50:43.536Z,69.38
2022-08-25T01:53:17.459Z,69.30
2022-08-25T01:55:45.458Z,69.40
2022-08-25T01:58:12.002Z,69.48
2022-08-25T02:00:44.189Z,69.81
2022-08-25T02:03:18.656Z,69.68
2022-08-25T02:05:48.081Z,69.72
2022-08-25T02:08:15.367Z,69.78
2022-08-25T02:10:41.908Z,70.18
2022-08-25T02:13:10.395Z,70.60
2022-08-25T02:15:41.007Z,70.75
2022-08-25T02:18:08.646Z,70.87
2022-08-25T02:20:35.210Z,71.24
2022-08-25T02:23:01.854Z,71.11
2022-08-25T02:25:28.415Z,71.60
2022-08-25T02:27:55.020Z,72.11
2022-08-25T02:30:23.042Z,72.12
2022-08-25T02:32:49.756Z,72.34
2022-08-25T02:35:16.760Z,72.12
2022-08-25T02:37:43.938Z,72.32
2022-08-25T02:40:11.193Z,72.51
2022-08-25T02:42:38.013Z,72.45
2022-08-25T02:45:05.808Z,72.39
2022-08-25T02:47:33.901Z,72.21
2022-08-25T02:50:00.463Z,72.46
2022-08-25T02:52:27.326Z,72.27
2022-08-25T02:54:53.867Z,72.54
2022-08-25T02:57:20.595Z,72.83
2022-08-25T02:59:47.219Z,72.96
2022-08-25T03:02:14.431Z,72.99
2022-08-25T03:04:42.851Z,73.06
2022-08-25T03:07:10.296Z,73.33
2022-08-25T03:09:39.187Z,73.51
2022-08-25T03:12:06.229Z,73.41
2022-08-25T03:14:32.783Z,73.19
2022-08-25T03:17:00.023Z,72.99
2022-08-25T03:19:26.663Z,72.88
2022-08-25T03:21:54.604Z,72.96
2022-08-25T03:24:21.236Z,73.54
2022-08-25T03:26:47.832Z,73.62
2022-08-25T03:29:14.365Z,73.94
2022-08-25T03:31:41.323Z,74.14
2022-08-25T03:34:08.001Z,74.39
2022-08-25T03:36:35.081Z,74.41
2022-08-25T03:39:03.726Z,74.34
2022-08-25T03:41:31.545Z,74.22
2022-08-25T03:43:59.347Z,74.50
2022-08-25T03:46:28.281Z,74.62
2022-08-25T03:48:55.511Z,74.95
2022-08-25T03:51:23.922Z,75.30
2022-08-25T03:53:50.859Z,75.00
2022-08-25T03:56:19.410Z,75.14
2022-08-25T03:58:46.572Z,75.48
2022-08-25T04:01:13.405Z,75.70
2022-08-25T04:03:42.050Z,75.96
2022-08-25T04:06:09.747Z,75.45
2022-08-25T04:08:37.138Z,75.37
2022-08-25T04:11:08.997Z,75.67
2022-08-25T04:13:37.377Z,75.63
2022-08-25T04:16:09.765Z,75.70
2022-08-25T04:18:36.429Z,75.73
2022-08-25T04:21:05.657Z,75.60
2022-08-25T04:23:32.288Z,75.52
2022-08-25T04:25:58.824Z,75.89
2022-08-25T04:28:25.479Z,76.50
2022-08-25T04:30:53.381Z,76.59
2022-08-25T04:33:19.944Z,76.41
2022-08-25T04:35:48.506Z,76.63
2022-08-25T04:38:15.232Z,76.28
2022-08-25T04:40:41.764Z,76.39
2022-08-25T04:43:08.435Z,76.19
2022-08-25T04:45:38.154Z,76.14
2022-08-25T04:48:06.686Z,76.15
2022-08-25T04:50:33.325Z,76.25
2022-08-25T04:53:00.006Z,75.88
2022-08-25T04:55:26.632Z,75.95
2022-08-25T04:57:53.240Z,76.23
2022-08-25T05:00:19.860Z,76.73
2022-08-25T05:02:46.567Z,76.24
2022-08-25T05:05:14.759Z,76.32
2022-08-25T05:07:41.375Z,76.81
2022-08-25T05:10:08.278Z,76.74
2022-08-25T05:12:34.863Z,76.88
2022-08-25T05:15:02.244Z,76.80
2022-08-25T05:17:28.866Z,76.80
2022-08-25T05:19:55.391Z,76.96
2022-08-25T05:22:23.345Z,77.27
2022-08-25T05:24:49.870Z,77.45
2022-08-25T05:27:16.460Z,77.50
2022-08-25T05:29:43.061Z,77.58
2022-08-25T05:32:09.674Z,77.50
2022-08-25T05:34:36.220Z,77.71
2022-08-25T05:37:02.853Z,77.59
2022-08-25T05:39:30.902Z,77.30
2022-08-25T05:41:57.480Z,77.04
2022-08-25T05:44:24.014Z,77.13
2022-08-25T05:46:50.654Z,76.92
2022-08-25T05:49:17.189Z,76.87
2022-08-25T05:51:43.874Z,76.74
2022-08-25T05:54:10.459Z,76.58
2022-08-25T05:56:38.467Z,76.43
2022-08-25T05:59:09.092Z,76.45
2022-08-25T06:01:36.214Z,76.21
2022-08-25T06:04:03.268Z,75.84
2022-08-25T06:06:30.226Z,75.70
2022-08-25T06:08:56.870Z,75.41
2022-08-25T06:11:23.524Z,75.10
2022-08-25T06:13:51.454Z,74.74
2022-08-25T06:16:18.096Z,74.61
2022-08-25T06:18:44.689Z,74.36
2022-08-25T06:21:13.668Z,74.44
2022-08-25T06:23:40.558Z,74.21
2022-08-25T06:26:09.578Z,73.52
2022-08-25T06:28:37.855Z,73.25
2022-08-25T06:31:06.230Z,72.90
2022-08-25T06:33:32.990Z,72.70
2022-08-25T06:35:59.638Z,72.12
2022-08-25T06:38:26.989Z,71.63
2022-08-25T06:40:53.739Z,71.57
2022-08-25T06:43:20.745Z,71.08
2022-08-25T06:45:47.297Z,70.88
2022-08-25T06:48:15.628Z,70.29
2022-08-25T06:50:43.050Z,69.85
2022-08-25T06:53:09.681Z,69.53
2022-08-25T06:55:36.199Z,68.67
2022-08-25T06:58:04.869Z,68.44
2022-08-25T07:00:32.610Z,68.03
2022-08-25T07:02:59.531Z,67.78
2022-08-25T07:05:40.810Z,67.64
2022-08-25T07:08:09.737Z,67.36
2022-08-25T07:10:36.280Z,66.63
2022-08-25T07:13:03.402Z,65.81
2022-08-25T07:15:29.903Z,65.31
2022-08-25T07:17:57.859Z,64.85
2022-08-25T07:22:53.225Z,64.07
2022-08-25T07:25:19.918Z,63.58
2022-08-25T07:27:46.563Z,63.18
2022-08-25T07:30:13.523Z,62.37
2022-08-25T07:32:41.918Z,61.53
2022-08-25T07:35:09.620Z,60.58
2022-08-25T07:37:48.457Z,59.57
2022-08-25T07:40:19.326Z,58.39
2022-08-25T07:42:46.137Z,57.29
2022-08-25T07:45:13.980Z,56.51
2022-08-25T07:47:44.003Z,55.44
2022-08-25T07:50:13.101Z,55.37
2022-08-25T07:52:41.298Z,54.19
2022-08-25T07:55:11.053Z,53.61
2022-08-25T07:57:40.529Z,53.15
2022-08-25T08:00:08.590Z,51.63
2022-08-25T08:02:38.640Z,52.12
2022-08-25T08:05:08.424Z,51.81
2022-08-25T08:07:43.009Z,51.45
2022-08-25T08:13:02.518Z,50.65
2022-08-25T08:15:29.569Z,49.49
2022-08-25T08:17:56.785Z,49.54
2022-08-25T08:20:25.300Z,48.92
2022-08-25T08:22:52.078Z,48.60
2022-08-25T08:25:21.399Z,48.68
2022-08-25T08:27:54.970Z,47.40
2022-08-25T08:30:26.248Z,47.73
2022-08-25T08:33:09.695Z,46.76
2022-08-25T08:35:36.995Z,46.22
2022-08-25T08:38:03.936Z,45.68
2022-08-25T08:40:34.526Z,45.81
2022-08-25T08:43:06.593Z,44.73
2022-08-25T08:45:40.686Z,44.57
2022-08-25T08:48:30.949Z,44.61
2022-08-25T08:51:09.986Z,44.38
2022-08-25T08:53:44.182Z,43.70
2022-08-25T08:56:16.506Z,43.29
2022-08-25T08:58:46.141Z,43.20
2022-08-25T09:01:26.145Z,43.00
2022-08-25T09:03:58.737Z,42.43
2022-08-25T09:06:32.584Z,41.85
2022-08-25T09:09:03.426Z,41.61
2022-08-25T09:11:51.591Z,41.79
2022-08-25T09:14:33.109Z,41.06
2022-08-25T09:17:04.287Z,40.25
2022-08-25T09:19:51.819Z,39.77
2022-08-25T09:22:35.891Z,39.91
2022-08-25T09:25:12.325Z,39.79
2022-08-25T09:27:46.546Z,40.08
2022-08-25T09:30:15.262Z,39.78
2022-08-25T09:32:48.846Z,39.35
2022-08-25T09:35:22.736Z,39.08
2022-08-25T09:37:56.462Z,38.17
2022-08-25T09:40:26.224Z,37.93
2022-08-25T09:42:57.970Z,37.49
2022-08-25T09:45:39.975Z,37.56
2022-08-25T09:48:25.603Z,36.93
2022-08-25T09:50:57.637Z,37.52
2022-08-25T09:53:25.119Z,36.81
2022-08-25T09:56:00.587Z,36.42
2022-08-25T09:58:27.424Z,36.37
2022-08-25T10:01:14.236Z,36.05
2022-08-25T10:04:03.189Z,36.06
2022-08-25T10:06:36.218Z,35.86
2022-08-25T10:09:06.038Z,36.20
2022-08-25T10:11:41.114Z,36.11
2022-08-25T10:14:28.037Z,36.13
2022-08-25T10:17:15.190Z,35.25
2022-08-25T10:19:43.793Z,35.32
2022-08-25T10:22:14.298Z,35.10
2022-08-25T10:24:43.934Z,34.27
2022-08-25T10:27:20.322Z,34.40
2022-08-25T10:30:03.053Z,33.71
2022-08-25T10:32:41.246Z,33.86
2022-08-25T10:35:15.351Z,33.52
2022-08-25T10:38:01.002Z,33.61
2022-08-25T10:40:35.054Z,33.70
2022-08-25T10:43:06.549Z,33.84
2022-08-25T10:45:39.376Z,33.63
2022-08-25T10:48:35.180Z,32.87
2022-08-25T10:51:18.840Z,32.45
2022-08-25T10:53:56.196Z,31.45
2022-08-25T10:56:29.056Z,32.47
2022-08-25T10:59:40.555Z,31.88
2022-08-25T11:02:29.166Z,31.38
2022-08-25T11:05:01.423Z,31.52
2022-08-25T11:07:34.373Z,31.03
2022-08-25T11:10:08.661Z,30.85
2022-08-25T11:12:40.957Z,30.56
2022-08-25T11:15:11.877Z,30.70
2022-08-25T11:17:42.805Z,30.43
2022-08-25T11:20:15.616Z,30.05
2022-08-25T11:23:02.232Z,30.35
2022-08-25T11:25:33.962Z,30.60
2022-08-25T11:28:08.244Z,28.38
2022-08-25T11:30:34.952Z,28.85
2022-08-25T11:33:01.560Z,28.87
2022-08-25T11:35:33.979Z,29.04
2022-08-25T11:38:20.871Z,29.18
2022-08-25T11:40:57.466Z,29.50
2022-08-25T11:43:40.752Z,28.55
2022-08-25T11:46:30.228Z,28.25
2022-08-25T11:49:07.853Z,26.95
2022-08-25T11:51:41.788Z,27.24
2022-08-25T11:54:20.940Z,27.15
2022-08-25T11:56:59.042Z,26.57
2022-08-25T12:00:02.163Z,26.02
2022-08-25T12:02:39.757Z,26.23
2022-08-25T12:05:09.509Z,25.70
2022-08-25T12:07:59.894Z,26.23
2022-08-25T12:10:57.550Z,25.60
2022-08-25T12:13:44.298Z,25.01
2022-08-25T12:16:40.746Z,25.80
2022-08-25T12:19:47.813Z,25.61
2022-08-25T12:22:42.436Z,25.92
2022-08-25T12:25:22.400Z,25.10
2022-08-25T12:28:01.124Z,25.26
2022-08-25T12:30:39.408Z,24.85
2022-08-25T12:33:13.314Z,25.60
2022-08-25T12:35:57.514Z,25.99
2022-08-25T12:38:30.685Z,26.13
2022-08-25T12:41:02.883Z,25.72
2022-08-25T12:43:37.505Z,25.83
2022-08-25T12:46:33.705Z,24.83
2022-08-25T12:49:01.554Z,24.64
2022-08-25T12:51:48.569Z,25.11
2022-08-25T12:54:22.743Z,24.37
2022-08-25T12:56:55.076Z,24.09
2022-08-25T12:59:31.395Z,24.21
2022-08-25T13:02:12.842Z,23.55
2022-08-25T13:05:03.216Z,23.43
2022-08-25T13:07:49.394Z,23.64
2022-08-25T13:10:27.202Z,23.80
2022-08-25T13:13:04.097Z,23.46
2022-08-25T13:15:38.665Z,23.03
2022-08-25T13:18:30.345Z,23.26
2022-08-25T13:21:04.212Z,22.46
2022-08-25T13:23:33.895Z,22.78
2022-08-25T13:26:00.468Z,22.62
2022-08-25T13:28:30.188Z,22.14
2022-08-25T13:31:01.340Z,22.17
2022-08-25T13:33:28.565Z,21.54
2022-08-25T13:35:57.418Z,21.18
2022-08-25T13:38:24.020Z,21.14
2022-08-25T13:40:50.615Z,21.05
2022-08-25T13:43:17.334Z,20.66
2022-08-25T13:45:50.630Z,20.10
2022-08-25T13:48:33.478Z,20.21
2022-08-25T13:51:07.993Z,20.40
2022-08-25T13:53:35.799Z,19.55
2022-08-25T13:56:04.002Z,19.77
2022-08-25T13:58:45.107Z,19.81
2022-08-25T14:01:22.364Z,19.56
2022-08-25T14:04:28.113Z,19.78
2022-08-25T14:07:08.278Z,20.14
2022-08-25T14:09:41.206Z,20.15
2022-08-25T14:12:07.960Z,20.01
2022-08-25T14:14:35.948Z,19.66
2022-08-25T14:17:16.519Z,19.71
2022-08-25T14:19:49.805Z,19.95
2022-08-25T14:22:16.577Z,20.03
2022-08-25T14:24:43.215Z,20.10
2022-08-25T14:27:11.921Z,19.38
2022-08-25T14:29:41.151Z,18.85
2022-08-25T14:32:09.362Z,18.81
2022-08-25T14:34:39.495Z,18.54
2022-08-25T14:37:13.817Z,18.70
2022-08-25T14:39:42.644Z,18.86
2022-08-25T14:42:11.331Z,18.31
2022-08-25T14:44:38.209Z,18.82
2022-08-25T14:47:07.197Z,19.10
2022-08-25T14:49:37.917Z,19.09
2022-08-25T14:52:19.282Z,19.08
2022-08-25T14:54:49.246Z,19.44
2022-08-25T14:57:15.782Z,19.42
2022-08-25T14:59:43.496Z,19.15
2022-08-25T15:02:12.887Z,18.94
2022-08-25T15:04:39.832Z,18.50
2022-08-25T15:07:15.738Z,18.42
2022-08-25T15:09:44.047Z,18.76
2022-08-25T15:12:10.685Z,18.09
2022-08-25T15:14:39.050Z,16.98
2022-08-25T15:17:08.348Z,16.79
2022-08-25T15:19:35.035Z,17.41
2022-08-25T15:22:01.704Z,17.23
2022-08-25T15:24:28.622Z,17.96
2022-08-25T15:26:58.904Z,18.19
2022-08-25T15:29:26.232Z,18.25
2022-08-25T15:31:53.194Z,18.11
2022-08-25T15:34:19.841Z,18.12
2022-08-25T15:36:46.570Z,18.50
2022-08-25T15:39:14.253Z,18.21
2022-08-25T15:41:42.759Z,18.43
2022-08-25T15:44:10.765Z,17.83
2022-08-25T15:46:41.058Z,18.00
2022-08-25T15:49:08.051Z,18.39
2022-08-25T15:51:34.912Z,18.24
2022-08-25T15:54:01.750Z,17.56
2022-08-25T15:56:28.312Z,18.07
2022-08-25T15:58:54.987Z,17.79
2022-08-25T16:01:26.728Z,17.72
2022-08-25T16:03:53.736Z,18.11
2022-08-25T16:06:20.518Z,18.02
2022-08-25T16:08:47.358Z,18.17
2022-08-25T16:11:17.204Z,17.44
2022-08-25T16:13:44.306Z,17.95
2022-08-25T16:16:10.963Z,17.63
2022-08-25T16:18:39.482Z,18.17
2022-08-25T16:21:12.441Z,17.98
2022-08-25T16:23:40.262Z,17.71
2022-08-25T16:26:08.723Z,17.83
2022-08-25T16:28:36.847Z,17.45
2022-08-25T16:31:03.700Z,17.47
2022-08-25T16:33:30.420Z,17.14
2022-08-25T16:36:06.678Z,17.25
2022-08-25T16:38:33.832Z,16.99
2022-08-25T16:41:00.451Z,16.91
2022-08-25T16:43:27.079Z,16.86
2022-08-25T16:45:57.691Z,16.86
2022-08-25T16:48:24.311Z,16.76
2022-08-25T16:50:52.176Z,16.93
2022-08-25T16:53:23.890Z,17.31
2022-08-25T16:56:00.408Z,17.13
2022-08-25T16:58:27.056Z,17.24
2022-08-25T17:01:04.292Z,17.43
2022-08-25T17:03:34.379Z,17.56
2022-08-25T17:06:01.284Z,17.63
2022-08-25T17:08:29.460Z,17.74
2022-08-25T17:11:05.676Z,17.76
2022-08-25T17:13:33.655Z,17.86
2022-08-25T17:16:02.540Z,17.72
2022-08-25T17:18:30.272Z,18.26
2022-08-25T17:21:02.313Z,19.07
2022-08-25T17:23:33.196Z,19.34
2022-08-25T17:26:01.220Z,20.00
2022-08-25T17:28:28.303Z,20.46
2022-08-25T17:30:55.291Z,21.05
2022-08-25T17:33:23.889Z,21.84
2022-08-25T17:35:53.467Z,22.39
2022-08-25T17:38:21.727Z,22.82
2022-08-25T17:40:49.669Z,22.99
2022-08-25T17:43:16.681Z,23.43
2022-08-25T17:45:45.214Z,23.85
2022-08-25T17:48:11.899Z,23.83
2022-08-25T17:50:38.913Z,24.52
2022-08-25T17:53:05.683Z,25.20
2022-08-25T17:55:32.290Z,25.76
2022-08-25T17:58:00.223Z,26.11
2022-08-25T18:00:26.747Z,26.37
2022-08-25T18:02:53.268Z,27.58
2022-08-25T18:05:20.294Z,28.36
2022-08-25T18:07:47.605Z,28.44
2022-08-25T18:10:16.565Z,28.76
2022-08-25T18:12:43.540Z,29.52
2022-08-25T18:15:14.172Z,29.83
2022-08-25T18:17:40.981Z,30.43
2022-08-25T18:20:11.033Z,31.19
2022-08-25T18:22:38.242Z,32.29
2022-08-25T18:25:10.977Z,32.83
2022-08-25T18:27:37.709Z,33.41
2022-08-25T18:30:06.585Z,33.76
2022-08-25T18:32:35.573Z,34.20
2022-08-25T18:35:02.944Z,34.55
2022-08-25T18:37:29.697Z,34.73
2022-08-25T18:39:56.745Z,35.52
2022-08-25T18:42:23.348Z,36.03
2022-08-25T18:44:49.990Z,36.53
2022-08-25T18:47:16.681Z,37.10
2022-08-25T18:49:44.583Z,37.48
2022-08-25T18:52:12.717Z,37.41
2022-08-25T18:54:39.234Z,37.59
2022-08-25T18:57:08.781Z,38.41
2022-08-25T18:59:35.805Z,38.83
2022-08-25T19:02:02.683Z,39.25
2022-08-25T19:04:31.734Z,39.47
2022-08-25T19:07:00.525Z,39.84
2022-08-25T19:09:27.160Z,40.19
2022-08-25T19:11:55.431Z,40.38
2022-08-25T19:14:22.512Z,40.73
2022-08-25T19:16:49.619Z,41.34
2022-08-25T19:19:16.601Z,41.65
2022-08-25T19:21:44.252Z,42.07
2022-08-25T19:24:13.644Z,42.45
2022-08-25T19:26:41.393Z,42.25
2022-08-25T19:29:12.512Z,42.76
2022-08-25T19:31:40.838Z,43.06
2022-08-25T19:34:09.239Z,43.37
2022-08-25T19:36:36.596Z,43.57
2022-08-25T19:39:08.804Z,44.08
2022-08-25T19:41:37.386Z,44.66
2022-08-25T19:44:05.054Z,45.36
2022-08-25T19:46:36.020Z,45.31
2022-08-25T19:49:07.651Z,45.38
2022-08-25T19:51:35.872Z,45.75
2022-08-25T19:54:02.823Z,45.86
2022-08-25T19:56:30.704Z,45.72
2022-08-25T19:58:58.651Z,46.17
2022-08-25T20:01:25.362Z,46.29
2022-08-25T20:03:51.950Z,46.73
2022-08-25T20:06:18.705Z,47.07
2022-08-25T20:08:45.231Z,47.40
2022-08-25T20:11:11.875Z,47.67
2022-08-25T20:13:38.722Z,48.15
2022-08-25T20:16:07.090Z,48.31
2022-08-25T20:18:33.734Z,48.18
2022-08-25T20:21:00.578Z,48.43
2022-08-25T20:23:27.877Z,48.74
2022-08-25T20:25:54.612Z,48.67
2022-08-25T20:28:22.833Z,48.99
2022-08-25T20:30:49.452Z,49.15
2022-08-25T20:33:22.924Z,49.54
2022-08-25T20:35:50.261Z,49.87
2022-08-25T20:38:19.822Z,49.96
2022-08-25T20:40:46.370Z,50.02
2022-08-25T20:43:15.345Z,50.21
2022-08-25T20:45:42.142Z,50.63
2022-08-25T20:48:09.482Z,50.93
2022-08-25T20:50:39.071Z,51.42
2022-08-25T20:53:10.006Z,51.56
2022-08-25T20:55:42.411Z,51.38
2022-08-25T20:58:09.231Z,51.47
2022-08-25T21:00:36.110Z,51.60
2022-08-25T21:03:02.750Z,52.07
2022-08-25T21:05:29.293Z,52.56
2022-08-25T21:07:57.161Z,52.65
2022-08-25T21:10:23.921Z,53.00
2022-08-25T21:12:53.344Z,53.25
2022-08-25T21:15:20.087Z,53.29
2022-08-25T21:17:49.549Z,53.24
2022-08-25T21:20:16.102Z,53.40
2022-08-25T21:22:42.692Z,53.65
2022-08-25T21:25:11.377Z,54.10
2022-08-25T21:27:37.963Z,54.20
2022-08-25T21:30:06.093Z,54.71
2022-08-25T21:32:34.375Z,55.35
2022-08-25T21:35:01.155Z,55.61
2022-08-25T21:37:27.840Z,55.68
2022-08-25T21:39:54.757Z,55.94
2022-08-25T21:42:23.723Z,55.98
2022-08-25T21:44:52.176Z,56.01
2022-08-25T21:47:21.156Z,56.43
2022-08-25T21:49:49.201Z,56.45
2022-08-25T21:52:15.741Z,56.89
2022-08-25T21:54:43.943Z,57.28
2022-08-25T21:57:10.488Z,57.82
2022-08-25T21:59:40.427Z,58.12
2022-08-25T22:02:09.864Z,58.43
2022-08-25T22:04:37.482Z,58.36
2022-08-25T22:07:06.654Z,58.67
2022-08-25T22:09:33.225Z,58.62
2022-08-25T22:11:59.752Z,58.63
2022-08-25T22:14:27.693Z,59.40
2022-08-25T22:16:55.915Z,59.97
2022-08-25T22:19:23.117Z,60.24
2022-08-25T22:21:51.192Z,60.48
2022-08-25T22:24:18.450Z,60.78
2022-08-25T22:26:47.659Z,61.13
2022-08-25T22:29:15.850Z,61.33
2022-08-25T22:31:53.037Z,61.31
2022-08-25T22:34:30.507Z,61.18
2022-08-25T22:36:59.821Z,61.25
2022-08-25T22:39:26.897Z,61.56
2022-08-25T22:41:53.466Z,62.14
2022-08-25T22:44:20.022Z,62.38
2022-08-25T22:46:46.637Z,62.62
2022-08-25T22:49:13.162Z,63.04
2022-08-25T22:51:42.411Z,63.76
2022-08-25T22:54:09.607Z,64.05
2022-08-25T22:56:36.930Z,64.07
2022-08-25T22:59:06.138Z,63.90
2022-08-25T23:01:33.489Z,64.07
2022-08-25T23:04:00.923Z,64.12
2022-08-25T23:06:29.007Z,64.23
2022-08-25T23:08:57.386Z,64.22
2022-08-25T23:11:24.818Z,64.46
2022-08-25T23:13:54.262Z,64.53
2022-08-25T23:16:22.779Z,64.67
2022-08-25T23:18:49.548Z,65.09
2022-08-25T23:21:16.186Z,65.20
2022-08-25T23:23:50.950Z,65.32
2022-08-25T23:26:19.092Z,65.62
2022-08-25T23:28:46.535Z,65.94
2022-08-25T23:31:13.705Z,66.21
2022-08-25T23:33:42.105Z,66.43
2022-08-25T23:36:11.336Z,66.63
2022-08-25T23:38:38.859Z,66.59
2022-08-25T23:41:06.627Z,66.83
2022-08-25T23:43:34.950Z,67.09
2022-08-25T23:46:02.427Z,67.34
2022-08-25T23:48:29.146Z,67.12
2022-08-25T23:50:55.735Z,67.28
2022-08-25T23:53:22.383Z,66.90
2022-08-25T23:55:53.112Z,66.80
2022-08-25T23:58:21.143Z,66.93
